Time;durP1;ratioP1;P1;durP2;ratioP2;P2;SDS_P1;SDS_P2;PMS_P1;PMS_P2;Temp;Humidity;BMP_temperature;BMP_pressure;BME280_temperature;BME280_humidity;BME280_pressure;Samples;Min_cycle;Max_cycle;Signal;HPM_P1;HPM_P2
2021/04/06 00:01:37;;;;;;;;;1.00;1.00;;;;;8.35;46.55;97532.34;5573641;28;4846014;-90
2021/04/06 00:04:44;;;;;;;;;3.00;2.00;;;;;6.82;47.05;97286.34;5563081;28;4864782;-90
2021/04/06 00:07:52;;;;;;;;;3.60;3.20;;;;;6.13;46.83;97185.56;5574257;28;4860686;-89
2021/04/06 00:11:03;;;;;;;;;5.00;5.00;;;;;8.20;47.00;97520.25;5613018;28;4146112;-90
2021/04/06 00:14:07;;;;;;;;;4.80;4.00;;;;;8.41;47.15;97510.69;5578476;28;4138788;-90
2021/04/06 00:17:13;;;;;;;;;4.00;3.40;;;;;8.52;47.25;97557.38;5583767;28;4865827;-90
2021/04/06 00:20:22;;;;;;;;;4.00;3.00;;;;;8.07;47.00;97517.81;5613294;28;4879494;-90
2021/04/06 00:23:36;;;;;;;;;6.00;5.00;;;;;7.76;47.60;97492.28;5591019;28;4872069;-90
2021/04/06 00:26:47;;;;;;;;;4.00;4.00;;;;;7.52;47.49;97436.25;5582917;28;4886637;-90
2021/04/06 00:29:56;;;;;;;;;5.00;4.00;;;;;7.94;47.95;97561.03;5594470;28;4861638;-89
2021/04/06 00:33:07;;;;;;;;;5.00;4.44;;;;;8.04;48.20;97581.91;5614293;28;4856478;-90
2021/04/06 00:36:11;;;;;;;;;3.80;3.40;;;;;7.76;47.93;97524.47;5581189;28;4866143;-90
2021/04/06 00:39:26;;;;;;;;;4.00;4.00;;;;;7.84;48.16;97553.59;5580557;28;4860561;-90
2021/04/06 00:42:29;;;;;;;;;7.00;6.50;;;;;7.98;48.05;97569.44;5600045;28;4162687;-90
2021/04/06 00:45:38;;;;;;;;;6.00;5.00;;;;;6.73;48.07;97347.50;5590036;28;4873127;-90
2021/04/06 00:48:46;;;;;;;;;5.00;5.00;;;;;8.01;48.19;97547.50;5606301;28;4862696;-90
2021/04/06 00:51:51;;;;;;;;;6.00;5.00;;;;;7.57;47.91;97461.31;5582178;28;4867860;-90
2021/04/06 00:54:56;;;;;;;;;7.20;6.80;;;;;8.10;47.90;97563.00;5587789;28;4148192;-90
2021/04/06 00:58:00;;;;;;;;;5.50;5.00;;;;;8.35;47.70;97594.94;5597840;28;4135633;-89
2021/04/06 01:01:04;;;;;;;;;7.00;7.00;;;;;7.86;47.88;97529.22;5586324;28;4847055;-89
2021/04/06 01:04:11;;;;;;;;;6.00;6.00;;;;;8.33;48.25;97596.22;5620556;28;4851214;-89
2021/04/06 01:07:17;;;;;;;;;5.60;5.60;;;;;7.95;48.33;97535.03;5594903;28;4858532;-90
2021/04/06 01:10:28;;;;;;;;;6.00;5.10;;;;;7.18;48.04;97395.06;5594951;28;4863773;-90
2021/04/06 01:13:35;;;;;;;;;6.75;5.63;;;;;8.36;47.95;97560.81;5547949;28;6441185;-90
2021/04/06 01:16:40;;;;;;;;;8.00;6.40;;;;;7.64;47.67;97475.38;5581211;28;4854347;-90
2021/04/06 01:19:43;;;;;;;;;7.40;6.80;;;;;8.51;47.38;97599.53;5566848;28;4866148;-89
2021/04/06 01:22:48;;;;;;;;;6.00;5.00;;;;;8.31;47.58;97623.28;5586618;28;4857455;-89
2021/04/06 01:25:58;;;;;;;;;5.00;5.00;;;;;8.13;48.22;97608.13;5617813;28;4871151;-89
2021/04/06 01:29:05;;;;;;;;;6.40;6.00;;;;;8.14;48.17;97593.66;5591012;28;4312720;-90
2021/04/06 01:32:12;;;;;;;;;5.00;5.00;;;;;7.38;48.06;97486.63;5622139;28;4885602;-89
2021/04/06 01:35:19;;;;;;;;;5.00;5.00;;;;;8.05;48.31;97615.75;5618969;28;4847039;-89
2021/04/06 01:38:27;;;;;;;;;6.00;6.00;;;;;7.88;48.24;97590.69;5586994;28;4857451;-90
2021/04/06 01:41:31;;;;;;;;;6.00;6.00;;;;;8.09;48.29;97627.63;5586926;28;4865773;-90
2021/04/06 01:44:39;;;;;;;;;6.00;6.00;;;;;7.48;48.10;97566.50;5631794;28;4456445;-89
2021/04/06 01:47:44;;;;;;;;;6.00;5.00;;;;;7.62;48.46;97597.38;5596254;28;4862664;-89
2021/04/06 01:50:50;;;;;;;;;9.00;7.00;;;;;7.79;48.61;97620.56;5594209;28;4878307;-89
2021/04/06 01:53:55;;;;;;;;;10.00;8.00;;;;;7.52;48.54;97548.88;5574436;28;5625209;-88
2021/04/06 01:57:04;;;;;;;;;8.20;8.20;;;;;8.03;48.43;97615.16;5588577;28;4876193;-89
2021/04/06 02:00:19;;;;;;;;;9.83;9.17;;;;;7.83;48.45;97573.44;5586983;28;4898181;-89
2021/04/06 02:03:30;;;;;;;;;10.83;9.83;;;;;7.78;48.18;97548.34;5600810;28;5641818;-89
2021/04/06 02:06:37;;;;;;;;;10.00;9.00;;;;;7.75;48.78;97557.69;5588821;28;5617219;-89
2021/04/06 02:09:42;;;;;;;;;10.00;9.40;;;;;6.55;48.28;97347.59;5586629;28;4909600;-89
2021/04/06 02:12:50;;;;;;;;;10.00;9.67;;;;;8.01;48.47;97601.19;5615612;28;3780431;-89
2021/04/06 02:15:57;;;;;;;;;9.00;9.00;;;;;8.18;48.29;97596.69;5621971;28;5600201;-89
2021/04/06 02:19:02;;;;;;;;;13.00;11.33;;;;;8.08;48.21;97610.72;5606362;28;5702272;-89
2021/04/06 02:22:10;;;;;;;;;12.33;12.00;;;;;8.08;48.38;97618.78;5606299;28;4957474;-89
2021/04/06 02:25:17;;;;;;;;;9.89;9.56;;;;;8.18;48.10;97624.34;5638736;28;5657436;-89
2021/04/06 02:28:26;;;;;;;;;8.78;7.78;;;;;7.69;48.32;97555.97;5606568;28;5586597;-89
2021/04/06 02:31:29;;;;;;;;;7.00;6.60;;;;;7.55;47.85;97529.63;5585948;28;4854358;-89
2021/04/06 02:34:36;;;;;;;;;10.00;10.00;;;;;8.23;47.62;97635.19;5588746;28;4925239;-89
2021/04/06 02:37:44;;;;;;;;;8.00;8.00;;;;;8.26;47.26;97648.13;5578710;28;4863776;-89
2021/04/06 02:40:47;;;;;;;;;9.40;8.00;;;;;7.60;47.45;97588.75;5587826;28;4880386;-90
2021/04/06 02:43:54;;;;;;;;;9.00;8.40;;;;;7.77;47.37;97577.03;5572422;28;4882561;-89
2021/04/06 02:46:58;;;;;;;;;12.00;11.40;;;;;6.73;47.48;97480.59;5604472;28;4963701;-89
2021/04/06 02:50:02;;;;;;;;;9.40;9.40;;;;;8.22;47.40;97651.53;5611632;28;4258533;-89
2021/04/06 02:53:10;;;;;;;;;10.33;10.00;;;;;8.22;47.49;97655.03;5610653;28;4936747;-89
2021/04/06 02:56:31;;;;;;;;;9.20;8.80;;;;;8.15;47.68;97632.88;5608682;28;4159660;-90
2021/04/06 02:59:39;;;;;;;;;10.60;10.60;;;;;8.26;47.41;97663.41;5609833;28;4944972;-89
2021/04/06 03:02:45;;;;;;;;;8.00;8.00;;;;;7.54;47.51;97558.31;5626575;28;4240929;-90
2021/04/06 03:06:01;;;;;;;;;10.60;10.00;;;;;8.32;47.35;97670.56;5593042;28;4959891;-90
2021/04/06 03:09:05;;;;;;;;;8.00;7.00;;;;;8.35;47.05;97671.97;5591537;28;4154367;-89
2021/04/06 03:12:10;;;;;;;;;11.00;10.00;;;;;8.21;46.84;97672.19;5594317;28;4955380;-89
2021/04/06 03:15:22;;;;;;;;;9.00;8.00;;;;;7.01;46.95;97501.31;5610452;28;4287677;-89
2021/04/06 03:18:34;;;;;;;;;8.00;7.50;;;;;7.21;46.71;97521.38;5604653;28;4855364;-90
2021/04/06 03:21:37;;;;;;;;;8.20;7.20;;;;;8.20;46.59;97675.94;5582613;28;4878276;-89
2021/04/06 03:24:41;;;;;;;;;12.00;10.00;;;;;8.35;46.50;97690.78;5587941;28;4941871;-89
2021/04/06 03:27:44;;;;;;;;;7.60;7.60;;;;;8.05;46.07;97631.84;5584980;28;4857504;-90
2021/04/06 03:30:48;;;;;;;;;8.00;7.00;;;;;8.52;45.66;97683.59;5586410;28;4857464;-90
2021/04/06 03:33:53;;;;;;;;;9.00;8.00;;;;;8.16;45.24;97636.41;5592970;28;4868937;-89
2021/04/06 03:36:58;;;;;;;;;9.00;8.00;;;;;8.29;44.89;97638.81;5583941;28;4169053;-89
2021/04/06 03:40:03;;;;;;;;;10.00;9.00;;;;;8.23;44.86;97581.50;5563768;28;5621011;-90
2021/04/06 03:43:12;;;;;;;;;6.40;6.20;;;;;8.13;44.48;97550.94;5571802;28;4857510;-89
2021/04/06 03:46:24;;;;;;;;;10.00;10.00;;;;;8.47;44.41;97621.72;5563971;28;5660580;-89
2021/04/06 03:49:33;;;;;;;;;9.11;8.56;;;;;8.44;44.20;97606.91;5590528;28;5599076;-90
2021/04/06 03:52:37;;;;;;;;;7.00;7.00;;;;;8.64;43.98;97660.22;5595969;28;4148132;-89
2021/04/06 03:55:45;;;;;;;;;9.00;8.60;;;;;8.44;44.33;97682.13;5593163;28;4332477;-90
2021/04/06 03:58:54;;;;;;;;;8.40;8.40;;;;;8.42;44.62;97675.34;5584498;28;4856933;-90
2021/04/06 04:01:58;;;;;;;;;9.00;9.00;;;;;8.30;44.61;97655.75;5583998;28;4872050;-89
2021/04/06 04:05:01;;;;;;;;;8.80;7.80;;;;;7.96;44.88;97588.47;5584593;28;4869963;-90
2021/04/06 04:08:06;;;;;;;;;9.20;8.20;;;;;8.42;44.20;97684.22;5574387;28;4175325;-90
2021/04/06 04:11:11;;;;;;;;;9.00;8.00;;;;;7.51;44.04;97541.88;5579045;28;4867859;-89
2021/04/06 04:14:14;;;;;;;;;8.00;6.40;;;;;7.93;43.84;97594.28;5578732;28;4854708;-90
2021/04/06 04:17:18;;;;;;;;;10.67;10.00;;;;;8.07;43.68;97643.16;5613354;28;5666839;-90
2021/04/06 04:20:24;;;;;;;;;9.00;9.00;;;;;8.04;43.84;97649.81;5599703;28;4871059;-90
2021/04/06 04:23:29;;;;;;;;;8.80;8.80;;;;;8.20;43.89;97673.28;5596363;28;4872082;-90
2021/04/06 04:26:33;;;;;;;;;8.20;7.60;;;;;7.12;43.54;97554.94;5592262;28;4874168;-90
2021/04/06 04:29:37;;;;;;;;;11.40;9.60;;;;;7.92;43.56;97653.56;5587551;28;4937665;-90
2021/04/06 04:32:44;;;;;;;;;12.00;10.33;;;;;8.35;43.71;97709.56;5592549;28;4953689;-90
2021/04/06 04:35:49;;;;;;;;;9.00;9.00;;;;;7.53;43.61;97582.66;5589334;28;4161074;-90
2021/04/06 04:38:52;;;;;;;;;11.00;10.80;;;;;6.91;42.89;97472.44;5576456;28;4939841;-90
2021/04/06 04:41:58;;;;;;;;;10.00;9.20;;;;;8.16;42.70;97682.81;5592360;28;4902313;-90
2021/04/06 04:45:04;;;;;;;;;10.17;10.17;;;;;7.31;42.68;97545.72;5593220;28;5659565;-90
2021/04/06 04:48:10;;;;;;;;;11.00;10.00;;;;;7.79;42.58;97631.28;5592291;28;4932488;-91
2021/04/06 04:51:18;;;;;;;;;9.78;8.11;;;;;7.41;42.71;97563.91;5629293;28;3833526;-90
2021/04/06 04:54:21;;;;;;;;;10.33;10.33;;;;;8.15;42.65;97696.50;5597687;28;3589912;-90
2021/04/06 04:57:26;;;;;;;;;10.00;9.00;;;;;7.85;42.64;97653.69;5594646;28;4910595;-90
2021/04/06 05:00:31;;;;;;;;;10.40;10.00;;;;;8.36;42.89;97746.09;5594019;28;4935628;-89
2021/04/06 05:03:37;;;;;;;;;10.40;9.00;;;;;8.14;42.66;97735.13;5592886;28;4916884;-90
2021/04/06 05:06:40;;;;;;;;;10.00;9.00;;;;;7.91;42.47;97701.06;5562792;28;4918960;-89
2021/04/06 05:09:44;;;;;;;;;7.00;6.60;;;;;8.20;42.44;97753.00;5589125;28;4857548;-89
2021/04/06 05:12:49;;;;;;;;;10.33;9.67;;;;;7.91;42.78;97713.66;5593177;28;5647019;-90
2021/04/06 05:15:54;;;;;;;;;10.60;9.60;;;;;7.51;42.42;97630.38;5611777;28;4937716;-89
2021/04/06 05:19:00;;;;;;;;;9.33;9.33;;;;;8.32;42.12;97810.19;5594497;28;5616839;-89
2021/04/06 05:22:04;;;;;;;;;9.00;8.20;;;;;6.87;42.21;97511.47;5596738;28;4888712;-90
2021/04/06 05:25:10;;;;;;;;;13.00;11.00;;;;;8.36;42.76;97748.78;5596384;28;4944988;-90
2021/04/06 05:28:15;;;;;;;;;11.33;10.67;;;;;8.39;42.40;97756.38;5587446;28;4960607;-89
2021/04/06 05:31:20;;;;;;;;;11.00;9.00;;;;;7.04;42.48;97536.50;5595414;28;4923085;-90
2021/04/06 05:34:27;;;;;;;;;10.40;10.00;;;;;7.53;41.78;97615.66;5597917;28;4938781;-90
2021/04/06 05:37:32;;;;;;;;;11.33;10.83;;;;;8.08;42.28;97706.53;5588013;28;4966879;-89
2021/04/06 05:40:37;;;;;;;;;11.00;9.00;;;;;8.16;42.18;97730.34;5595680;28;4920446;-90
2021/04/06 05:43:43;;;;;;;;;11.00;9.00;;;;;8.09;42.21;97706.31;5612273;28;4926231;-91
2021/04/06 05:46:52;;;;;;;;;10.80;9.00;;;;;7.74;41.99;97655.31;5595470;28;4907485;-90
2021/04/06 05:50:01;;;;;;;;;11.50;11.00;;;;;8.49;41.89;97765.50;5594670;28;5697056;-90
2021/04/06 05:53:06;;;;;;;;;9.40;9.00;;;;;8.39;41.87;97742.97;5596326;28;4852275;-91
2021/04/06 05:56:09;;;;;;;;;9.00;8.00;;;;;8.53;41.59;97742.47;5617181;28;3469060;-90
2021/04/06 05:59:14;;;;;;;;;12.33;11.00;;;;;8.68;41.55;97763.47;5587306;28;4971027;-90
2021/04/06 06:02:18;;;;;;;;;11.00;10.00;;;;;8.32;41.46;97696.59;5586746;28;4938757;-90
2021/04/06 06:05:22;;;;;;;;;11.00;9.00;;;;;8.66;40.97;97738.69;5591260;28;4489771;-91
2021/04/06 06:08:29;;;;;;;;;11.00;9.00;;;;;8.23;41.32;97688.06;5586963;28;4923482;-90
2021/04/06 06:11:56;;;;;;;;;13.67;11.00;;;;;8.51;41.41;97717.69;5594945;28;5696015;-90
2021/04/06 06:15:12;;;;;;;;;11.33;10.33;;;;;8.38;41.51;97683.06;5599240;28;3478412;-90
2021/04/06 06:18:16;;;;;;;;;10.00;10.00;;;;;8.83;41.28;97744.16;5582457;28;4939806;-90
2021/04/06 06:21:23;;;;;;;;;9.00;9.00;;;;;8.53;41.07;97683.38;5592621;28;4864774;-90
2021/04/06 06:24:28;;;;;;;;;9.33;8.83;;;;;9.10;40.61;97762.16;5565772;28;5609592;-90
2021/04/06 06:27:37;;;;;;;;;10.80;8.80;;;;;8.99;40.91;97772.97;5573841;28;4914768;-89
2021/04/06 06:30:42;;;;;;;;;12.33;11.33;;;;;8.99;41.04;97771.06;5579965;28;4960718;-89
2021/04/06 06:33:48;;;;;;;;;12.50;11.33;;;;;7.17;41.38;97469.28;5589775;28;5706396;-90
2021/04/06 06:37:07;;;;;;;;;13.00;12.33;;;;;9.02;41.37;97794.00;5583739;28;4975316;-89
2021/04/06 06:40:14;;;;;;;;;12.67;11.00;;;;;9.04;41.71;97767.69;5585213;28;4412724;-89
2021/04/06 06:43:19;;;;;;;;;12.20;12.00;;;;;8.87;41.91;97756.88;5576954;28;4559037;-89
2021/04/06 06:46:28;;;;;;;;;11.67;11.00;;;;;6.87;41.88;97480.13;5586784;28;5691845;-90
2021/04/06 06:49:36;;;;;;;;;16.00;14.00;;;;;8.37;42.38;97681.41;5598117;28;4562692;-90
2021/04/06 06:57:06;;;;;;;;;13.00;13.00;;;;;8.59;42.56;97729.97;5593119;28;5676523;-89
2021/04/06 07:00:16;;;;;;;;;14.33;13.00;;;;;8.55;42.93;97726.91;5591704;28;5717825;-89
2021/04/06 07:03:20;;;;;;;;;12.83;12.33;;;;;8.73;42.81;97758.19;5600055;28;4983539;-90
2021/04/06 07:06:25;;;;;;;;;13.00;13.00;;;;;8.72;42.52;97740.44;5592808;28;4465800;-89
2021/04/06 07:09:31;;;;;;;;;14.00;13.00;;;;;8.79;42.61;97751.06;5567019;28;4458040;-89
2021/04/06 07:12:39;;;;;;;;;14.00;13.00;;;;;8.52;42.30;97691.66;5608835;28;6450145;-89
2021/04/06 07:15:43;;;;;;;;;18.00;15.00;;;;;8.90;42.19;97747.50;5573618;28;4066929;-89
2021/04/06 07:18:50;;;;;;;;;15.00;14.00;;;;;8.96;41.64;97744.69;5560254;28;4564787;-89
2021/04/06 07:22:01;;;;;;;;;16.00;14.00;;;;;8.80;41.27;97737.38;5572184;28;6479290;-89
2021/04/06 07:25:13;;;;;;;;;14.00;12.00;;;;;8.35;41.43;97637.91;5560541;28;3869033;-89
2021/04/06 07:28:18;;;;;;;;;13.00;12.00;;;;;9.06;41.23;97746.75;5559328;28;4465852;-89
2021/04/06 07:31:23;;;;;;;;;16.00;14.00;;;;;9.15;41.00;97748.00;5565082;28;5746083;-89
2021/04/06 07:34:29;;;;;;;;;15.67;13.17;;;;;8.81;40.86;97695.19;5564169;28;5725212;-89
2021/04/06 07:37:39;;;;;;;;;14.00;13.00;;;;;9.19;40.82;97742.97;5572881;28;5693920;-89
2021/04/06 07:40:47;;;;;;;;;16.67;15.00;;;;;9.02;40.70;97713.34;5572094;28;5729371;-89
2021/04/06 07:43:56;;;;;;;;;14.00;11.83;;;;;8.95;40.37;97742.22;5580214;28;5702273;-89
2021/04/06 07:50:36;;;;;;;;;12.43;11.43;;;;;9.18;40.45;97734.09;5620150;28;5708580;-89
2021/04/06 07:53:58;;;;;;;;;12.67;11.67;;;;;8.79;40.21;97665.06;5594672;28;5696378;-89
2021/04/06 07:57:05;;;;;;;;;14.00;11.67;;;;;8.70;39.98;97654.69;5596154;28;5698079;-89
2021/04/06 08:00:50;;;;;;;;;11.60;11.00;;;;;8.90;40.07;97710.69;5590654;28;4926282;-89
2021/04/06 08:04:05;;;;;;;;;13.50;12.67;;;;;8.61;39.99;97642.69;5585766;28;5688732;-89
2021/04/06 08:07:28;;;;;;;;;14.33;13.00;;;;;9.12;39.67;97745.81;5596545;28;5725156;-90
2021/04/06 08:10:43;;;;;;;;;14.00;13.00;;;;;8.93;39.71;97744.34;5584518;28;4470035;-89
2021/04/06 08:14:03;;;;;;;;;14.33;13.83;;;;;8.76;39.78;97717.41;5573451;28;5719948;-90
2021/04/06 08:17:51;;;;;;;;;17.00;15.33;;;;;8.60;40.16;97716.28;5559786;28;4329375;-90
2021/04/06 08:21:09;;;;;;;;;14.00;13.00;;;;;8.65;40.21;97720.94;5524070;28;5698121;-90
2021/04/06 08:24:22;;;;;;;;;16.67;13.67;;;;;8.86;39.76;97747.19;5594439;28;5715770;-90
2021/04/06 08:27:36;;;;;;;;;13.29;13.29;;;;;9.00;40.02;97761.97;5593978;28;6460564;-90
2021/04/06 08:30:44;;;;;;;;;15.56;14.00;;;;;8.84;39.33;97772.66;5585632;28;5702256;-90
2021/04/06 08:33:52;;;;;;;;;14.00;12.50;;;;;8.32;39.57;97677.81;5593697;28;5704343;-90
2021/04/06 08:37:12;;;;;;;;;12.00;11.71;;;;;8.77;39.21;97735.16;5594073;28;5704450;-90
2021/04/06 08:40:44;;;;;;;;;15.67;14.00;;;;;9.22;38.52;97772.06;5609266;28;5735588;-91
2021/04/06 08:43:53;;;;;;;;;11.00;10.33;;;;;9.33;38.37;97771.22;5584658;28;4955480;-90
2021/04/06 08:46:59;;;;;;;;;13.00;12.00;;;;;9.40;38.59;97745.78;5570234;28;5689221;-89
2021/04/06 08:50:09;;;;;;;;;12.17;11.00;;;;;9.83;37.49;97780.16;5612222;28;5691841;-90
2021/04/06 08:53:13;;;;;;;;;12.00;12.00;;;;;9.92;37.85;97775.22;5574444;28;4404392;-91
2021/04/06 08:56:18;;;;;;;;;13.00;13.00;;;;;9.72;37.08;97743.41;5584280;28;4562783;-91
2021/04/06 08:59:31;;;;;;;;;15.00;13.86;;;;;9.57;36.64;97754.72;5590697;28;5735632;-90
2021/04/06 09:02:39;;;;;;;;;13.71;13.71;;;;;9.02;36.93;97646.16;5590864;28;5725250;-90
2021/04/06 09:05:44;;;;;;;;;14.00;12.00;;;;;9.95;37.08;97772.03;5579473;28;4254350;-90
2021/04/06 09:08:54;;;;;;;;;16.00;15.67;;;;;9.68;36.51;97771.00;5585245;28;5752260;-88
2021/04/06 09:12:01;;;;;;;;;14.67;12.67;;;;;9.58;36.59;97747.44;5596373;28;5683512;-89
2021/04/06 09:15:11;;;;;;;;;14.67;14.33;;;;;9.71;36.69;97743.63;5586827;28;5721030;-89
2021/04/06 09:18:17;;;;;;;;;15.00;14.00;;;;;9.88;36.30;97769.47;5580926;28;4984731;-89
2021/04/06 09:21:31;;;;;;;;;13.00;13.00;;;;;8.64;36.52;97537.47;5590923;28;5741852;-89
2021/04/06 09:24:45;;;;;;;;;13.67;12.33;;;;;10.10;36.32;97733.75;5574977;28;5699132;-89
2021/04/06 09:27:59;;;;;;;;;15.00;14.00;;;;;8.77;36.06;97496.03;5598179;28;4984637;-88
2021/04/06 09:31:09;;;;;;;;;14.86;13.86;;;;;10.66;35.25;97690.34;5613253;28;6460528;-91
2021/04/06 09:34:24;;;;;;;;;15.00;14.50;;;;;10.61;35.58;97649.88;5620800;28;5741812;-91
2021/04/06 09:37:34;;;;;;;;;15.17;13.33;;;;;10.84;34.75;97687.38;5608637;28;5741818;-89
2021/04/06 09:40:41;;;;;;;;;17.00;14.67;;;;;10.65;34.62;97599.00;5606791;28;5754325;-91
2021/04/06 09:43:47;;;;;;;;;15.33;14.33;;;;;11.17;34.01;97629.72;5568700;28;5710617;-90
2021/04/06 09:46:56;;;;;;;;;17.86;15.00;;;;;11.83;33.74;97705.84;5597423;28;6472484;-91
2021/04/06 09:50:03;;;;;;;;;15.83;14.00;;;;;11.99;33.08;97721.09;5591103;28;5725209;-90
2021/04/06 09:53:17;;;;;;;;;15.33;12.33;;;;;11.94;33.12;97736.47;5579222;28;3875235;-90
2021/04/06 09:56:24;;;;;;;;;15.00;14.33;;;;;11.33;34.09;97659.53;5583448;28;5733493;-90
2021/04/06 09:59:31;;;;;;;;;19.00;17.00;;;;;11.42;34.29;97684.97;5590109;28;5739927;-91
2021/04/06 10:02:39;;;;;;;;;15.17;14.00;;;;;11.24;34.14;97669.94;5602706;28;5719956;-90
2021/04/06 10:05:46;;;;;;;;;16.83;16.17;;;;;11.60;34.47;97728.59;5585447;28;5736598;-90
2021/04/06 10:08:53;;;;;;;;;15.83;14.00;;;;;11.50;34.33;97743.88;5583579;28;5741807;-90
2021/04/06 10:12:00;;;;;;;;;13.00;12.67;;;;;11.52;33.39;97726.38;5609029;28;5723617;-90
2021/04/06 10:15:09;;;;;;;;;11.67;11.00;;;;;10.80;32.64;97550.59;5616675;28;5686624;-91
2021/04/06 10:18:17;;;;;;;;;12.00;12.00;;;;;11.87;31.63;97701.59;5604795;28;5708503;-90
2021/04/06 10:21:26;;;;;;;;;13.00;11.33;;;;;12.40;30.42;97753.81;5626701;28;5698157;-90
2021/04/06 10:24:40;;;;;;;;;15.43;13.57;;;;;11.71;29.45;97540.53;5576559;28;5721081;-90
2021/04/06 10:27:48;;;;;;;;;10.33;10.00;;;;;13.85;29.47;97725.63;5584863;28;5675227;-90
2021/04/06 10:30:58;;;;;;;;;14.00;13.00;;;;;13.33;27.49;97562.63;5598072;28;5710577;-90
2021/04/06 10:34:05;;;;;;;;;14.00;12.50;;;;;13.97;28.25;97703.69;5608324;28;5725144;-90
2021/04/06 10:37:44;;;;;;;;;8.40;8.40;;;;;14.84;26.50;97736.88;5597605;28;4513715;-90
2021/04/06 10:40:58;;;;;;;;;10.40;9.40;;;;;15.14;26.28;97715.06;5567944;28;4921104;-91
2021/04/06 10:44:05;;;;;;;;;10.00;10.00;;;;;15.28;25.92;97747.81;5598156;28;4951218;-91
2021/04/06 10:47:25;;;;;;;;;13.00;12.00;;;;;14.92;25.98;97720.03;5593868;28;5708522;-91
2021/04/06 10:50:32;;;;;;;;;10.00;9.00;;;;;14.79;25.40;97664.47;5607780;28;4914733;-91
2021/04/06 10:53:40;;;;;;;;;9.50;9.00;;;;;15.25;26.08;97724.75;5606036;28;4885618;-90
2021/04/06 10:56:50;;;;;;;;;12.40;10.00;;;;;13.89;25.15;97585.03;5581143;28;4944960;-90
2021/04/06 10:59:55;;;;;;;;;10.00;9.00;;;;;14.97;25.65;97709.16;5586836;28;4902341;-89
2021/04/06 11:03:14;;;;;;;;;10.00;9.60;;;;;14.96;26.25;97713.75;5590938;28;4916911;-91
2021/04/06 11:06:27;;;;;;;;;12.00;10.00;;;;;15.00;26.23;97736.53;5591851;28;5663732;-90
2021/04/06 11:09:35;;;;;;;;;11.60;11.00;;;;;14.57;26.14;97699.25;5581119;28;4921062;-90
2021/04/06 11:12:43;;;;;;;;;13.00;12.00;;;;;14.84;27.11;97664.44;5578568;28;5706411;-90
2021/04/06 11:15:51;;;;;;;;;13.57;12.00;;;;;15.59;25.50;97712.06;5580847;28;5697088;-90
2021/04/06 11:19:04;;;;;;;;;12.00;11.33;;;;;15.38;25.47;97726.06;5597329;28;5685575;-91
2021/04/06 11:22:11;;;;;;;;;10.67;9.67;;;;;14.95;25.07;97723.03;5578959;28;4069041;-91
2021/04/06 11:25:16;;;;;;;;;11.00;10.00;;;;;13.42;25.91;97491.44;5588055;28;5678232;-91
2021/04/06 11:28:22;;;;;;;;;9.60;9.60;;;;;14.85;25.67;97668.78;5595369;28;4888764;-91
2021/04/06 11:31:28;;;;;;;;;12.40;11.40;;;;;15.05;24.29;97632.59;5595510;28;4935614;-91
2021/04/06 11:34:37;;;;;;;;;10.89;9.00;;;;;16.16;23.81;97704.28;5610124;28;5627272;-91
2021/04/06 11:37:41;;;;;;;;;10.00;9.80;;;;;16.26;23.20;97671.56;5597338;28;4920325;-91
2021/04/06 11:40:47;;;;;;;;;13.00;9.20;;;;;16.12;22.78;97671.44;5588738;28;4925185;-90
2021/04/06 11:43:53;;;;;;;;;8.60;7.60;;;;;15.92;22.70;97702.34;5596022;28;4874184;-91
2021/04/06 11:46:59;;;;;;;;;11.00;11.00;;;;;15.71;23.56;97681.03;5615815;28;4940140;-91
2021/04/06 11:50:07;;;;;;;;;11.17;10.33;;;;;14.77;23.96;97620.50;5571587;28;4962012;-91
2021/04/06 11:53:10;;;;;;;;;12.00;11.00;;;;;14.61;24.43;97608.13;5574718;28;4048180;-92
2021/04/06 11:56:16;;;;;;;;;11.67;10.67;;;;;14.05;24.26;97509.94;5588541;28;5667327;-91
2021/04/06 11:59:22;;;;;;;;;11.40;10.00;;;;;14.61;23.96;97610.84;5590232;28;4326226;-91
2021/04/06 12:02:29;;;;;;;;;12.17;12.17;;;;;13.90;23.78;97532.47;5579510;28;5704375;-91
2021/04/06 12:05:35;;;;;;;;;11.40;10.00;;;;;14.12;24.20;97586.34;5589374;28;4951273;-92
2021/04/06 12:08:42;;;;;;;;;10.00;9.60;;;;;14.71;24.36;97671.28;5589433;28;4926270;-91
2021/04/06 12:11:48;;;;;;;;;10.00;9.80;;;;;13.64;25.62;97515.47;5591591;28;4928373;-91
2021/04/06 12:14:53;;;;;;;;;10.60;10.00;;;;;14.08;25.57;97639.44;5589950;28;4932528;-91
2021/04/06 12:17:59;;;;;;;;;11.00;10.00;;;;;13.96;25.58;97620.78;5596790;28;4937760;-91
2021/04/06 12:21:08;;;;;;;;;10.80;10.20;;;;;13.73;26.45;97619.44;5606181;28;5667903;-91
2021/04/06 12:24:14;;;;;;;;;12.00;11.00;;;;;13.36;25.99;97614.31;5596842;28;5720998;-91
2021/04/06 12:27:20;;;;;;;;;13.33;12.00;;;;;13.59;26.04;97666.31;5590261;28;5714764;-92
2021/04/06 12:30:29;;;;;;;;;10.67;10.67;;;;;13.45;26.06;97663.31;5596746;28;5693924;-91
2021/04/06 12:33:33;;;;;;;;;10.00;9.00;;;;;12.57;26.23;97533.59;5600182;28;4916831;-92
2021/04/06 12:36:41;;;;;;;;;11.00;10.67;;;;;12.80;25.63;97542.28;5595946;28;5706455;-92
2021/04/06 12:40:07;;;;;;;;;11.60;10.60;;;;;12.92;25.79;97538.22;5607905;28;4942932;-91
2021/04/06 12:43:14;;;;;;;;;11.33;10.33;;;;;13.22;24.87;97615.94;5600792;28;4516299;-91
2021/04/06 12:46:22;;;;;;;;;12.00;11.00;;;;;12.47;25.00;97525.44;5603993;28;4941874;-90
2021/04/06 12:49:28;;;;;;;;;11.83;11.00;;;;;12.12;25.31;97457.78;5614611;28;5688750;-91
2021/04/06 12:52:34;;;;;;;;;12.33;11.00;;;;;13.08;24.93;97549.06;5595747;28;5694954;-90
2021/04/06 12:56:48;;;;;;;;;7.00;6.60;;;;;14.07;24.41;97635.94;5583737;28;4156561;-91
2021/04/06 12:59:56;;;;;;;;;10.00;9.44;;;;;14.33;23.97;97637.47;5624620;28;5637608;-91
2021/04/06 13:03:03;;;;;;;;;11.00;11.00;;;;;14.10;24.30;97645.41;5578671;28;5691861;-91
2021/04/06 13:06:07;;;;;;;;;10.60;9.60;;;;;14.07;23.73;97637.84;5574108;28;4929686;-91
2021/04/06 13:09:14;;;;;;;;;11.00;10.00;;;;;13.43;23.42;97527.44;5610841;28;5668956;-92
2021/04/06 13:12:20;;;;;;;;;10.40;10.00;;;;;13.94;24.03;97601.28;5580960;28;4951272;-90
2021/04/06 13:15:28;;;;;;;;;11.00;10.20;;;;;13.76;24.03;97593.72;5626251;28;5673454;-90
2021/04/06 13:18:35;;;;;;;;;11.33;11.00;;;;;13.43;24.12;97494.97;5575836;28;5683544;-90
2021/04/06 13:21:47;;;;;;;;;10.40;10.00;;;;;13.77;23.62;97530.34;5589081;28;4949514;-91
2021/04/06 13:24:54;;;;;;;;;11.17;10.00;;;;;13.59;23.54;97539.03;5574183;28;5666865;-91
2021/04/06 13:28:00;;;;;;;;;11.20;9.20;;;;;14.00;24.14;97605.59;5594974;28;4933573;-91
2021/04/06 13:31:06;;;;;;;;;12.50;10.50;;;;;14.17;24.58;97622.34;5613700;28;4953836;-91
2021/04/06 13:34:14;;;;;;;;;12.00;11.00;;;;;13.88;24.97;97572.56;5596233;28;5666865;-91
2021/04/06 13:37:19;;;;;;;;;9.50;9.00;;;;;14.30;24.82;97569.47;5579927;28;5615138;-90
2021/04/06 13:40:27;;;;;;;;;9.00;9.00;;;;;14.51;23.90;97591.91;5616765;28;5589706;-90
2021/04/06 13:43:35;;;;;;;;;9.67;9.33;;;;;14.73;23.52;97625.69;5596990;28;3806421;-90
2021/04/06 13:46:50;;;;;;;;;10.00;10.00;;;;;14.45;23.16;97636.41;5574910;28;4949026;-90
2021/04/06 13:49:57;;;;;;;;;11.83;10.17;;;;;14.04;23.78;97622.13;5596429;28;5671015;-90
2021/04/06 13:53:01;;;;;;;;;10.00;10.00;;;;;13.41;22.59;97564.78;5588854;28;4926273;-90
2021/04/06 13:56:07;;;;;;;;;8.00;8.00;;;;;13.54;23.32;97601.31;5615890;28;4867996;-92
2021/04/06 13:59:11;;;;;;;;;10.00;8.60;;;;;13.37;23.87;97607.03;5580149;28;4894982;-90
2021/04/06 14:02:18;;;;;;;;;9.56;9.00;;;;;13.45;24.10;97638.97;5591814;28;4869994;-91
2021/04/06 14:05:26;;;;;;;;;12.00;12.00;;;;;12.93;25.77;97606.69;5613777;28;5688716;-91
2021/04/06 14:08:33;;;;;;;;;14.29;13.43;;;;;12.51;26.91;97620.34;5598000;28;5717459;-91
2021/04/06 14:11:39;;;;;;;;;15.33;14.33;;;;;12.31;28.60;97639.19;5589450;28;5731375;-90
2021/04/06 14:14:45;;;;;;;;;14.17;13.00;;;;;11.88;29.75;97588.97;5591698;28;5700166;-90
2021/04/06 14:18:05;;;;;;;;;10.00;10.00;;;;;12.26;29.86;97626.47;5587827;28;5671012;-90
2021/04/06 14:21:17;;;;;;;;;13.71;12.00;;;;;11.77;29.86;97519.78;5574416;28;5710638;-90
2021/04/06 14:24:24;;;;;;;;;11.83;11.83;;;;;12.41;29.96;97596.00;5578274;28;5696035;-90
2021/04/06 14:27:30;;;;;;;;;11.00;11.00;;;;;10.81;29.95;97406.66;5590518;28;4945036;-90